Wetterdaten: aktuell Freitag, 23.02.2018 18:00
Datum Zeit Temp. I. Temp. A. Feuchte I. Feuchte A. Luftdruck Regen Wind Richtung Richtung Taupunkt Windchill
23.02.2018 18:00 22,6 C 0,8 C 19 % 58 % 1020 hPa 0,0 mm 6,1 km/h (2 Bft) NO 45 -6,5 C -1,1 C
23.02.2018 17:00 22,9 C 2,1 C 19 % 55 % 1020 hPa 0,0 mm 7,9 km/h (2 Bft) O-NO45 65 -6,0 C -0,2 C
23.02.2018 16:00 22,6 C 3,6 C 19 % 54 % 1020 hPa 0,0 mm 17,6 km/h (3 Bft) N 360 -4,8 C -0,4 C
23.02.2018 15:00 22,4 C 2,6 C 19 % 56 % 1020 hPa 0,0 mm 20,9 km/h (4 Bft) NO 45 -5,3 C -2,1 C
23.02.2018 14:00 22,6 C 2,2 C 19 % 58 % 1020 hPa 0,0 mm 13,7 km/h (3 Bft) O-NO45 65 -5,2 C -1,5 C
23.02.2018 13:00 22,6 C 1,5 C 19 % 60 % 1021 hPa 0,0 mm 9,7 km/h (2 Bft) NO 45 -5,4 C -1,4 C
23.02.2018 12:00 22,3 C 0,5 C 19 % 63 % 1021 hPa 0,0 mm 15,1 km/h (3 Bft) O-NO45 65 -5,7 C -3,8 C
23.02.2018 11:00 22,0 C -0,2 C 19 % 67 % 1022 hPa 0,0 mm 15,1 km/h (3 Bft) O-NO45 65 -5,6 C -4,7 C
23.02.2018 10:00 21,6 C -1,0 C 19 % 72 % 1022 hPa 0,0 mm 9,4 km/h (2 Bft) O-NO45 65 -5,4 C -4,3 C
23.02.2018 09:00 21,2 C -1,6 C 19 % 79 % 1021 hPa 0,0 mm 14,8 km/h (3 Bft) NO 45 -4,8 C -6,3 C
23.02.2018 08:00 21,0 C -1,9 C 19 % 83 % 1021 hPa 0,0 mm 7,2 km/h (2 Bft) NO 45 -4,4 C -4,7 C
23.02.2018 07:00 20,9 C -2,6 C 19 % 83 % 1021 hPa 0,0 mm 5,4 km/h (1 Bft) NO 45 -5,1 C -4,7 C
23.02.2018 06:00 20,6 C -2,2 C 19 % 84 % 1020 hPa 0,0 mm 4,0 km/h (1 Bft) NO 45 -4,5 C -2,2 C
23.02.2018 05:00 20,3 C -2,1 C 19 % 82 % 1020 hPa 0,0 mm 5,4 km/h (1 Bft) N 360 -4,7 C -4,2 C
23.02.2018 04:00 20,5 C -2,1 C 19 % 80 % 1020 hPa 0,0 mm 2,2 km/h (1 Bft) N-NO45 20 -5,1 C -2,1 C
23.02.2018 03:00 20,6 C -2,2 C 19 % 80 % 1021 hPa 0,0 mm 6,1 km/h (2 Bft) NO 45 -5,2 C -4,6 C
23.02.2018 02:00 20,7 C -2,4 C 19 % 77 % 1021 hPa 0,0 mm 5,8 km/h (2 Bft) NO 45 -5,9 C -4,7 C
23.02.2018 01:00 20,9 C -2,2 C 19 % 76 % 1021 hPa 0,0 mm 4,0 km/h (1 Bft) N 360 -5,8 C -2,2 C
23.02.2018 00:00 21,1 C -1,9 C 19 % 75 % 1021 hPa 0,0 mm 6,5 km/h (2 Bft) NO 45 -5,7 C -4,4 C
22.02.2018 23:00 21,4 C -1,7 C 19 % 75 % 1021 hPa 0,0 mm 5,4 km/h (1 Bft) N-NO45 20 -5,5 C -3,7 C
22.02.2018 22:00 21,6 C -1,5 C 19 % 72 % 1021 hPa 0,0 mm 4,0 km/h (1 Bft) NO 45 -5,9 C -1,5 C
22.02.2018 21:00 21,7 C -0,9 C 19 % 70 % 1022 hPa 0,0 mm 6,1 km/h (2 Bft) NO 45 -5,7 C -3,1 C
22.02.2018 20:00 21,9 C -0,4 C 19 % 68 % 1022 hPa 0,0 mm 4,7 km/h (1 Bft) N-NO45 20 -5,6 C -1,9 C
22.02.2018 19:00 22,1 C 0,3 C 19 % 65 % 1021 hPa 0,0 mm 5,8 km/h (2 Bft) NO 45 -5,5 C -1,6 C
_ Min-Zeit 05:00 07:00 19:00 16:00 04:00 - 04:00 - - 18:00 09:00
Minimum _ 20,3 C -2,6 C 19 % 54 % 1020 hPa - 2,2 km/h (1 Bft) - - -6,5 C -6,3 C
_ Max-Zeit 17:00 16:00 19:00 06:00 20:00 19:00 15:00 - - 08:00 17:00
Maximum _ 22,9 C 3,6 C 19 % 84 % 1022 hPa 0,0 mm 20,9 km/h
NO (4 Bft)
- - -4,4 C -0,2 C
Durchschnitt _ 21,6 C -0,5 C 19 % 70 % 1021 hPa #0,0 mm 8,3 km/h (2 Bft) NO - -5,4 C -2,9 C